SCRIPT_RESULTS Banner
METAR for LFQQ

by Dr. Günther Eichhorn

METAR for LFQQ provided by aerobaticsweb.org
Current time: Wednesday, 5 Oct, 2022, 05:40 UTC
(This may take a minute, please be patient)


The most recent METAR observation from LFQQ in our system was generated at
2022/10/05 05:30
The observation is:
2022/10/05 05:30
LFQQ 050530Z AUTO 20010KT 9999 OVC029 15/12 Q1015 TEMPO BKN009 BKN012

24 Hour Summary

Time (UTC) Temperature
°C (°F)
Dew Point
°C (°F)
Pressure
Inches (hPa)
Wind
mph (km/h)
Weather
00:00 5 October 15 (59 ) 13 (55 ) 30.06 (1018) S 7 (11)
01:00 5 October 15 (59 ) 12 (53 ) 30.03 (1017) SSW 12 (19)
02:00 5 October 15 (59 ) 11 (51 ) 30.03 (1017) S 10 (16)
03:00 5 October 15 (59 ) 11 (51 ) 30.00 (1016) S 12 (19)
04:00 5 October 15 (59 ) 11 (51 ) 30.00 (1016) SSW 14 (23)
05:00 5 October 15 (59 ) 12 (53 ) 29.97 (1015) SSW 12 (19)
06:00 4 October 7 (44 ) 7 (44 ) 30.15 (1021) S 2 (3) fog
07:00 4 October 9 (48 ) 9 (48 ) 30.15 (1021) S 7 (11) mist
08:00 4 October 11 (51 ) 10 (50 ) 30.15 (1021) S 8 (13)
09:00 4 October 12 (53 ) 11 (51 ) 30.12 (1020) S 9 (14)
10:00 4 October 15 (59 ) 12 (53 ) 30.12 (1020) S 9 (14)
11:00 4 October 17 (62 ) 12 (53 ) 30.12 (1020) S 12 (19)
12:00 4 October 18 (64 ) 13 (55 ) 30.12 (1020) S 12 (19)
13:00 4 October 18 (64 ) 13 (55 ) 30.09 (1019) S 12 (19)
14:00 4 October 19 (66 ) 13 (55 ) 30.09 (1019) S 12 (19)
15:00 4 October 18 (64 ) 13 (55 ) 30.09 (1019) S 12 (19)
16:00 4 October 17 (62 ) 13 (55 ) 30.09 (1019) S 10 (16)
17:00 4 October 17 (62 ) 13 (55 ) 30.09 (1019) S 8 (13)
18:00 4 October 16 (60 ) 13 (55 ) 30.09 (1019) S 5 (8)
19:00 4 October 16 (60 ) 13 (55 ) 30.09 (1019) S 5 (8)
20:00 4 October 16 (60 ) 13 (55 ) 30.09 (1019) SW 5 (8)
21:00 4 October 15 (59 ) 13 (55 ) 30.09 (1019) SSW 6 (10)
22:00 4 October 15 (59 ) 13 (55 ) 30.06 (1018) S 6 (10)
23:00 4 October 15 (59 ) 13 (55 ) 30.06 (1018) S 8 (13)
The information presented here is taken from products produced by the U.S. National Weather Service and other national and international agencies. Landings.com does not present this as official information. Please refer to official weather briefings for flight critical information.


access provided by Dr. Guenther Eichhorn at aerobaticsweb.org